North Hoosick, New York
Current Conditions -  °F | °C
As of 11:54 PM on Sunday 19 Oct 2014 (Local Time) from KDDH Reporting Station
Clear Clear  
Wind Chill: 34°   Ceiling: Unl
Heat Index: 34°   Visibility: 10mi
Dew Point: 23°   Wind: 3mph
Humidity: 64%   Direction: 290°WNW
Pressure: 30"   Gusts: NA
Location:  42.93°N, 73.34°W
Report Text: KDDH 200354Z AUTO 29003KT 10SM CLR 01/M05 A3000 RMK AO2 SLP163 T00111050
Loading
Personal Weather Stations






























Interactive Weather Map
Tropical Storm Tracking
New forecast layout! Learn more

10-Day Weather Forecast

Advertisements
Track Severe Weather on mobile